Details From SBMQ - MACAPA
To SOCA - Cayenne Rochambeau
Flight Number -
Tags generated
Created
Modified
Stats Distance 310 nm / 574 km
Max Altitude 23,500 ft / 7,163 m
Waypoints 7
Social Downloads 0
Likes 0
Share VATSIM

Download

Looking for another format? Having issues loading an existing format? Contact us
Advertisement - Login to hide

Notes

Basic altitude profile: - Ascent Rate: 2500ft/min - Ascent Speed: 250kts - Cruise Altitude: 35000ft - Cruise Speed: 420kts - Descent Rate: 1500ft/min - Descent Speed: 250kts Options: - Use NATs: yes - Use PACOTS: yes - Use low airways: yes - Use high airways: yes

Route

SBMQ MCP G449 AMP A555 ALDIX SOCA

ID Type Via Altitude Latitude Longitude Leg Dist Tot Dist Heading (true) Name
O SBMQ APT - 0 ft / 0 m 0.05064˚ -51.07216˚ - 0 nm - MACAPA
MCP VOR - 0 ft / 0 m 0.05217˚ -51.07300˚ 0 nm 0 nm 331° / 331° MACAPA VOR-DME
ROFIC FIX G449 (AWY-LO) 11,600 ft / 3,536 m 0.63517˚ -51.01167˚ 35 nm 35 nm 6° / 6° -
AMP NDB G449 (AWY-LO) 23,500 ft / 7,163 m 2.06883˚ -50.86050˚ 86 nm 121 nm 6° / 6° AMAPA NDB
OIA NDB A555 (AWY-LO) 14,300 ft / 4,359 m 3.85983˚ -51.79783˚ 121 nm 243 nm 332° / 332° OIAPOQUE NDB
ALDIX FIX A555 (AWY-LO) 8,600 ft / 2,621 m 4.23944˚ -52.02472˚ 26 nm 269 nm 329° / 329° -
O SOCA APT - 0 ft / 0 m 4.81981˚ -52.36045˚ 40 nm 310 nm 330° / 330° Cayenne Rochambeau

Altitude Profile

Advertisement - Login to hide

Weather


0- 5 10 15 20 25 30 35+ Temperature / ° C

Clouds and Precipitation
Forecast for 2017-12-16 00:00 UTC. Updated 23 minutes ago

Ground ~20,000 ft ~40,000 ft Winds

SBMQ

Details ICAO SBMQ (MCP)
Name MACAPA
Region Brazil
Timezone America/Belem (UTC-3.0)
Stats Elevation 56 ft / 17 m (AMSL)
Location 0.050639° -51.072162°
Runways 1
Magnetic Variation 19.352° W

METAR

SBMQ 152315Z 03007KT 4000 RA BKN008 OVC070 25/25 Q1011

Decode

TAF

TAF SBMQ 151600Z 1518/1618 07010KT 9999 SCT020 FEW025TCU TN24/1608Z TX33/1617Z BECMG 1521/1523 03010KT FEW015 BECMG 1605/1607 36005KT BECMG 1611/1613 04008KT SCT020 BECMG 1615/1617 08010KT SCT020 FEW025TCU RMK PEH

Decode

Departure Runways

ID Width Length Bearing (true) Bearing (mag) Surface Threshold Offset Overrun Length
08 148 ft / 45 m 6,917 ft / 2,108 m 57.22° 76.57° Asphalt 0 ft / 0 m 219 ft / 67 m
26 148 ft / 45 m 6,917 ft / 2,108 m 237.22° 256.57° Asphalt 0 ft / 0 m 219 ft / 67 m

SOCA

Details ICAO SOCA (CAY)
Name Cayenne Rochambeau
Region French Guiana
Timezone America/Cayenne (UTC-3.0)
Stats Elevation 26 ft / 8 m (AMSL)
Location 4.819807° -52.360446°
Runways 1
Magnetic Variation 18.389° W

METAR

SOCA 152330Z AUTO VRB03KT CAVOK 25/24 Q1012 TEMPO SHRA FEW015TCU

Decode

TAF

Not found

Destination Runways

ID Width Length Bearing (true) Bearing (mag) Surface Threshold Offset Overrun Length
08 148 ft / 45 m 10,489 ft / 3,197 m 65.20° 83.59° Asphalt 0 ft / 0 m 244 ft / 74 m
26 148 ft / 45 m 10,489 ft / 3,197 m 245.20° 263.59° Asphalt 0 ft / 0 m 0 ft / 0 m

Popular Alternatives